sensor_id;sensor_type;location;lat;lon;timestamp;temperature;humidity
20744;DHT22;56303;52.160;-0.428;2023-02-26T00:01:29;4.20;99.90
20744;DHT22;56303;52.160;-0.428;2023-02-26T00:03:59;4.20;99.90
20744;DHT22;56303;52.160;-0.428;2023-02-26T00:06:33;4.20;99.90
20744;DHT22;56303;52.160;-0.428;2023-02-26T00:09:00;4.30;99.90
20744;DHT22;56303;52.160;-0.428;2023-02-26T00:11:27;4.30;99.90
20744;DHT22;56303;52.160;-0.428;2023-02-26T00:13:54;4.30;99.90
20744;DHT22;56303;52.160;-0.428;2023-02-26T00:16:34;4.20;99.90
20744;DHT22;56303;52.160;-0.428;2023-02-26T00:19:04;4.20;99.90
20744;DHT22;56303;52.160;-0.428;2023-02-26T00:21:35;4.30;99.90
20744;DHT22;56303;52.160;-0.428;2023-02-26T00:24:02;4.40;99.90
20744;DHT22;56303;52.160;-0.428;2023-02-26T00:26:33;4.50;99.90
20744;DHT22;56303;52.160;-0.428;2023-02-26T00:29:02;4.50;99.90
20744;DHT22;56303;52.160;-0.428;2023-02-26T00:31:29;4.20;99.90
20744;DHT22;56303;52.160;-0.428;2023-02-26T00:33:57;4.30;99.90
20744;DHT22;56303;52.160;-0.428;2023-02-26T00:36:37;4.20;99.90
20744;DHT22;56303;52.160;-0.428;2023-02-26T00:42:13;4.20;99.90
20744;DHT22;56303;52.160;-0.428;2023-02-26T00:44:40;4.10;99.90
20744;DHT22;56303;52.160;-0.428;2023-02-26T00:47:19;4.20;99.90
20744;DHT22;56303;52.160;-0.428;2023-02-26T00:50:15;4.20;99.90
20744;DHT22;56303;52.160;-0.428;2023-02-26T00:53:47;4.50;99.90
20744;DHT22;56303;52.160;-0.428;2023-02-26T00:55:41;4.40;99.90
20744;DHT22;56303;52.160;-0.428;2023-02-26T00:58:09;4.30;99.90
20744;DHT22;56303;52.160;-0.428;2023-02-26T01:00:36;4.30;99.90
20744;DHT22;56303;52.160;-0.428;2023-02-26T01:03:03;3.90;99.90
20744;DHT22;56303;52.160;-0.428;2023-02-26T01:05:30;3.50;99.90
20744;DHT22;56303;52.160;-0.428;2023-02-26T01:08:22;3.60;99.90
20744;DHT22;56303;52.160;-0.428;2023-02-26T01:10:55;3.50;99.90
20744;DHT22;56303;52.160;-0.428;2023-02-26T01:13:22;3.40;99.90
20744;DHT22;56303;52.160;-0.428;2023-02-26T01:15:54;3.30;99.90
20744;DHT22;56303;52.160;-0.428;2023-02-26T01:18:32;3.40;99.90
20744;DHT22;56303;52.160;-0.428;2023-02-26T01:21:07;3.60;99.90
20744;DHT22;56303;52.160;-0.428;2023-02-26T01:23:40;3.40;99.90
20744;DHT22;56303;52.160;-0.428;2023-02-26T01:26:17;3.40;99.90
20744;DHT22;56303;52.160;-0.428;2023-02-26T01:28:46;3.30;99.90
20744;DHT22;56303;52.160;-0.428;2023-02-26T01:31:47;3.10;99.90
20744;DHT22;56303;52.160;-0.428;2023-02-26T01:37:15;2.90;99.90
20744;DHT22;56303;52.160;-0.428;2023-02-26T01:39:57;2.70;99.90
20744;DHT22;56303;52.160;-0.428;2023-02-26T01:42:26;2.70;99.90
20744;DHT22;56303;52.160;-0.428;2023-02-26T01:45:13;2.90;99.90
20744;DHT22;56303;52.160;-0.428;2023-02-26T01:48:05;3.00;99.90
20744;DHT22;56303;52.160;-0.428;2023-02-26T01:50:35;3.10;99.90
20744;DHT22;56303;52.160;-0.428;2023-02-26T01:53:21;3.30;99.90
20744;DHT22;56303;52.160;-0.428;2023-02-26T01:55:59;3.40;99.90
20744;DHT22;56303;52.160;-0.428;2023-02-26T01:58:29;3.50;99.90
20744;DHT22;56303;52.160;-0.428;2023-02-26T02:00:57;3.50;99.90
20744;DHT22;56303;52.160;-0.428;2023-02-26T02:03:25;3.70;99.90
20744;DHT22;56303;52.160;-0.428;2023-02-26T02:06:10;3.50;99.90
20744;DHT22;56303;52.160;-0.428;2023-02-26T02:08:41;3.50;99.90
20744;DHT22;56303;52.160;-0.428;2023-02-26T02:11:10;2.80;99.90
20744;DHT22;56303;52.160;-0.428;2023-02-26T02:17:11;3.80;99.90
20744;DHT22;56303;52.160;-0.428;2023-02-26T02:31:23;3.60;99.90
20744;DHT22;56303;52.160;-0.428;2023-02-26T02:36:58;4.00;99.90
20744;DHT22;56303;52.160;-0.428;2023-02-26T02:39:46;3.80;99.90
20744;DHT22;56303;52.160;-0.428;2023-02-26T02:42:19;4.00;99.90
20744;DHT22;56303;52.160;-0.428;2023-02-26T02:44:55;4.10;99.90
20744;DHT22;56303;52.160;-0.428;2023-02-26T02:47:24;3.90;99.90
20744;DHT22;56303;52.160;-0.428;2023-02-26T02:50:13;3.80;99.90
20744;DHT22;56303;52.160;-0.428;2023-02-26T02:52:54;3.90;99.90
20744;DHT22;56303;52.160;-0.428;2023-02-26T02:55:26;4.00;99.90
20744;DHT22;56303;52.160;-0.428;2023-02-26T02:58:15;4.80;99.90
20744;DHT22;56303;52.160;-0.428;2023-02-26T03:00:50;4.20;99.90
20744;DHT22;56303;52.160;-0.428;2023-02-26T03:05:49;4.30;99.90
20744;DHT22;56303;52.160;-0.428;2023-02-26T03:08:19;4.60;99.90
20744;DHT22;56303;52.160;-0.428;2023-02-26T03:10:47;4.10;99.90
20744;DHT22;56303;52.160;-0.428;2023-02-26T03:13:16;4.00;99.90
20744;DHT22;56303;52.160;-0.428;2023-02-26T03:24:24;4.10;99.90
20744;DHT22;56303;52.160;-0.428;2023-02-26T03:26:57;4.30;99.90
20744;DHT22;56303;52.160;-0.428;2023-02-26T03:29:52;4.00;99.90
20744;DHT22;56303;52.160;-0.428;2023-02-26T03:32:57;3.90;99.90
20744;DHT22;56303;52.160;-0.428;2023-02-26T03:35:40;4.00;99.90
20744;DHT22;56303;52.160;-0.428;2023-02-26T03:38:32;4.00;99.90
20744;DHT22;56303;52.160;-0.428;2023-02-26T03:41:08;5.50;99.90
20744;DHT22;56303;52.160;-0.428;2023-02-26T03:43:45;4.20;99.90
20744;DHT22;56303;52.160;-0.428;2023-02-26T03:46:16;4.20;99.90
20744;DHT22;56303;52.160;-0.428;2023-02-26T03:48:47;4.20;99.90
20744;DHT22;56303;52.160;-0.428;2023-02-26T03:51:15;4.30;99.90
20744;DHT22;56303;52.160;-0.428;2023-02-26T03:54:08;4.40;99.90
20744;DHT22;56303;52.160;-0.428;2023-02-26T03:56:40;4.10;99.90
20744;DHT22;56303;52.160;-0.428;2023-02-26T03:59:08;4.00;99.90
20744;DHT22;56303;52.160;-0.428;2023-02-26T04:04:22;4.10;99.90
20744;DHT22;56303;52.160;-0.428;2023-02-26T04:06:50;4.30;99.90
20744;DHT22;56303;52.160;-0.428;2023-02-26T04:09:20;4.20;99.90
20744;DHT22;56303;52.160;-0.428;2023-02-26T04:11:49;4.20;99.90
20744;DHT22;56303;52.160;-0.428;2023-02-26T04:14:17;4.20;99.90
20744;DHT22;56303;52.160;-0.428;2023-02-26T04:16:44;4.10;99.90
20744;DHT22;56303;52.160;-0.428;2023-02-26T04:19:11;4.10;99.90
20744;DHT22;56303;52.160;-0.428;2023-02-26T04:21:38;4.20;99.90
20744;DHT22;56303;52.160;-0.428;2023-02-26T04:24:05;4.00;99.90
20744;DHT22;56303;52.160;-0.428;2023-02-26T04:26:32;4.10;99.90
20744;DHT22;56303;52.160;-0.428;2023-02-26T04:29:00;5.00;99.90
20744;DHT22;56303;52.160;-0.428;2023-02-26T04:31:26;4.40;99.90
20744;DHT22;56303;52.160;-0.428;2023-02-26T04:33:53;4.70;99.90
20744;DHT22;56303;52.160;-0.428;2023-02-26T04:36:20;4.60;99.90
20744;DHT22;56303;52.160;-0.428;2023-02-26T04:38:48;5.10;99.90
20744;DHT22;56303;52.160;-0.428;2023-02-26T04:41:15;4.50;99.90
20744;DHT22;56303;52.160;-0.428;2023-02-26T04:43:42;4.40;99.90
20744;DHT22;56303;52.160;-0.428;2023-02-26T04:46:08;4.60;99.90
20744;DHT22;56303;52.160;-0.428;2023-02-26T04:48:35;4.40;99.90
20744;DHT22;56303;52.160;-0.428;2023-02-26T04:51:02;5.60;99.90
20744;DHT22;56303;52.160;-0.428;2023-02-26T04:53:35;4.60;99.90
20744;DHT22;56303;52.160;-0.428;2023-02-26T04:56:02;4.60;99.90
20744;DHT22;56303;52.160;-0.428;2023-02-26T04:58:29;4.60;99.90
20744;DHT22;56303;52.160;-0.428;2023-02-26T05:00:56;4.70;99.90
20744;DHT22;56303;52.160;-0.428;2023-02-26T05:03:23;4.80;99.90
20744;DHT22;56303;52.160;-0.428;2023-02-26T05:05:50;4.80;99.90
20744;DHT22;56303;52.160;-0.428;2023-02-26T05:08:17;4.90;99.90
20744;DHT22;56303;52.160;-0.428;2023-02-26T05:10:44;4.80;99.90
20744;DHT22;56303;52.160;-0.428;2023-02-26T05:13:11;4.70;99.90
20744;DHT22;56303;52.160;-0.428;2023-02-26T05:15:38;4.60;99.90
20744;DHT22;56303;52.160;-0.428;2023-02-26T05:18:05;4.50;99.90
20744;DHT22;56303;52.160;-0.428;2023-02-26T05:20:31;4.40;99.90
20744;DHT22;56303;52.160;-0.428;2023-02-26T05:22:58;4.40;99.90
20744;DHT22;56303;52.160;-0.428;2023-02-26T05:25:25;4.40;99.90
20744;DHT22;56303;52.160;-0.428;2023-02-26T05:27:52;4.80;99.90
20744;DHT22;56303;52.160;-0.428;2023-02-26T05:30:18;4.60;99.90
20744;DHT22;56303;52.160;-0.428;2023-02-26T05:32:45;4.40;99.90
20744;DHT22;56303;52.160;-0.428;2023-02-26T05:35:12;4.30;99.90
20744;DHT22;56303;52.160;-0.428;2023-02-26T05:37:39;4.00;99.90
20744;DHT22;56303;52.160;-0.428;2023-02-26T05:40:08;4.20;99.90
20744;DHT22;56303;52.160;-0.428;2023-02-26T05:42:38;4.20;99.90
20744;DHT22;56303;52.160;-0.428;2023-02-26T05:45:06;4.20;99.90
20744;DHT22;56303;52.160;-0.428;2023-02-26T05:47:34;4.50;99.90
20744;DHT22;56303;52.160;-0.428;2023-02-26T05:50:01;5.10;99.90
20744;DHT22;56303;52.160;-0.428;2023-02-26T05:52:28;4.30;99.90
20744;DHT22;56303;52.160;-0.428;2023-02-26T05:54:55;4.50;99.90
20744;DHT22;56303;52.160;-0.428;2023-02-26T05:57:23;4.50;99.90
20744;DHT22;56303;52.160;-0.428;2023-02-26T05:59:50;4.30;99.90
20744;DHT22;56303;52.160;-0.428;2023-02-26T06:02:17;4.20;99.90
20744;DHT22;56303;52.160;-0.428;2023-02-26T06:04:44;4.10;99.90
20744;DHT22;56303;52.160;-0.428;2023-02-26T06:07:11;4.10;99.90
20744;DHT22;56303;52.160;-0.428;2023-02-26T06:09:38;4.10;99.90
20744;DHT22;56303;52.160;-0.428;2023-02-26T06:12:05;4.30;99.90
20744;DHT22;56303;52.160;-0.428;2023-02-26T06:14:33;4.20;99.90
20744;DHT22;56303;52.160;-0.428;2023-02-26T06:17:02;4.00;99.90
20744;DHT22;56303;52.160;-0.428;2023-02-26T06:19:29;4.60;99.90
20744;DHT22;56303;52.160;-0.428;2023-02-26T06:21:55;3.90;99.90
20744;DHT22;56303;52.160;-0.428;2023-02-26T06:24:24;4.60;99.90
20744;DHT22;56303;52.160;-0.428;2023-02-26T06:26:51;4.30;99.90
20744;DHT22;56303;52.160;-0.428;2023-02-26T06:29:18;3.90;99.90
20744;DHT22;56303;52.160;-0.428;2023-02-26T06:31:46;4.10;99.90
20744;DHT22;56303;52.160;-0.428;2023-02-26T06:34:14;4.50;99.90
20744;DHT22;56303;52.160;-0.428;2023-02-26T06:36:41;4.30;99.90
20744;DHT22;56303;52.160;-0.428;2023-02-26T06:39:08;4.40;99.90
20744;DHT22;56303;52.160;-0.428;2023-02-26T06:41:35;4.80;99.90
20744;DHT22;56303;52.160;-0.428;2023-02-26T06:44:02;4.10;99.90
20744;DHT22;56303;52.160;-0.428;2023-02-26T06:46:29;4.00;99.90
20744;DHT22;56303;52.160;-0.428;2023-02-26T06:48:56;3.80;99.90
20744;DHT22;56303;52.160;-0.428;2023-02-26T06:51:23;3.90;99.90
20744;DHT22;56303;52.160;-0.428;2023-02-26T06:53:50;3.80;99.90
20744;DHT22;56303;52.160;-0.428;2023-02-26T06:56:17;3.70;99.90
20744;DHT22;56303;52.160;-0.428;2023-02-26T06:58:43;4.40;99.90
20744;DHT22;56303;52.160;-0.428;2023-02-26T07:01:10;4.90;99.90
20744;DHT22;56303;52.160;-0.428;2023-02-26T07:03:37;3.90;99.90
20744;DHT22;56303;52.160;-0.428;2023-02-26T07:06:05;3.90;99.90
20744;DHT22;56303;52.160;-0.428;2023-02-26T07:08:52;3.90;99.90
20744;DHT22;56303;52.160;-0.428;2023-02-26T07:11:19;4.00;99.90
20744;DHT22;56303;52.160;-0.428;2023-02-26T07:13:46;3.90;99.90
20744;DHT22;56303;52.160;-0.428;2023-02-26T07:16:13;3.80;99.90
20744;DHT22;56303;52.160;-0.428;2023-02-26T07:18:40;3.90;99.90
20744;DHT22;56303;52.160;-0.428;2023-02-26T07:21:07;4.10;99.90
20744;DHT22;56303;52.160;-0.428;2023-02-26T07:23:34;3.60;99.90
20744;DHT22;56303;52.160;-0.428;2023-02-26T07:26:01;3.50;99.90
20744;DHT22;56303;52.160;-0.428;2023-02-26T07:28:29;3.90;99.90
20744;DHT22;56303;52.160;-0.428;2023-02-26T07:30:56;3.50;99.90
20744;DHT22;56303;52.160;-0.428;2023-02-26T07:33:24;3.60;99.90
20744;DHT22;56303;52.160;-0.428;2023-02-26T07:35:52;3.60;99.90
20744;DHT22;56303;52.160;-0.428;2023-02-26T07:38:19;3.90;99.90
20744;DHT22;56303;52.160;-0.428;2023-02-26T07:40:47;4.30;99.90
20744;DHT22;56303;52.160;-0.428;2023-02-26T07:43:13;4.20;99.90
20744;DHT22;56303;52.160;-0.428;2023-02-26T07:45:40;3.80;99.90
20744;DHT22;56303;52.160;-0.428;2023-02-26T07:48:07;4.20;99.90
20744;DHT22;56303;52.160;-0.428;2023-02-26T07:50:34;3.70;99.90
20744;DHT22;56303;52.160;-0.428;2023-02-26T07:53:01;4.10;99.90
20744;DHT22;56303;52.160;-0.428;2023-02-26T07:55:28;3.70;99.90
20744;DHT22;56303;52.160;-0.428;2023-02-26T07:57:55;3.70;99.90
20744;DHT22;56303;52.160;-0.428;2023-02-26T08:00:22;3.70;99.90
20744;DHT22;56303;52.160;-0.428;2023-02-26T08:02:49;3.80;99.90
20744;DHT22;56303;52.160;-0.428;2023-02-26T08:05:16;3.70;99.90
20744;DHT22;56303;52.160;-0.428;2023-02-26T08:07:43;3.80;99.90
20744;DHT22;56303;52.160;-0.428;2023-02-26T08:10:10;4.10;99.90
20744;DHT22;56303;52.160;-0.428;2023-02-26T08:12:37;4.40;99.90
20744;DHT22;56303;52.160;-0.428;2023-02-26T08:15:04;4.60;99.90
20744;DHT22;56303;52.160;-0.428;2023-02-26T08:17:31;4.30;99.90
20744;DHT22;56303;52.160;-0.428;2023-02-26T08:19:59;4.30;99.90
20744;DHT22;56303;52.160;-0.428;2023-02-26T08:22:26;4.40;99.90
20744;DHT22;56303;52.160;-0.428;2023-02-26T08:24:53;4.40;99.90
20744;DHT22;56303;52.160;-0.428;2023-02-26T08:27:20;4.40;99.90
20744;DHT22;56303;52.160;-0.428;2023-02-26T08:29:46;4.80;99.90
20744;DHT22;56303;52.160;-0.428;2023-02-26T08:32:16;4.90;99.90
20744;DHT22;56303;52.160;-0.428;2023-02-26T08:34:45;4.90;99.90
20744;DHT22;56303;52.160;-0.428;2023-02-26T08:37:13;4.90;99.90
20744;DHT22;56303;52.160;-0.428;2023-02-26T08:39:40;5.10;99.90
20744;DHT22;56303;52.160;-0.428;2023-02-26T08:42:08;5.10;99.90
20744;DHT22;56303;52.160;-0.428;2023-02-26T08:44:35;4.70;99.90
20744;DHT22;56303;52.160;-0.428;2023-02-26T08:47:02;5.00;99.90
20744;DHT22;56303;52.160;-0.428;2023-02-26T08:49:29;4.90;99.90
20744;DHT22;56303;52.160;-0.428;2023-02-26T08:51:56;5.00;99.90
20744;DHT22;56303;52.160;-0.428;2023-02-26T08:54:23;5.10;99.90
20744;DHT22;56303;52.160;-0.428;2023-02-26T08:56:51;5.20;99.90
20744;DHT22;56303;52.160;-0.428;2023-02-26T08:59:19;5.30;99.90
20744;DHT22;56303;52.160;-0.428;2023-02-26T09:01:46;5.40;99.90
20744;DHT22;56303;52.160;-0.428;2023-02-26T09:04:13;5.70;99.90
20744;DHT22;56303;52.160;-0.428;2023-02-26T09:06:40;5.50;99.90
20744;DHT22;56303;52.160;-0.428;2023-02-26T09:09:07;5.60;99.90
20744;DHT22;56303;52.160;-0.428;2023-02-26T09:11:34;5.80;99.90
20744;DHT22;56303;52.160;-0.428;2023-02-26T09:14:03;5.80;99.90
20744;DHT22;56303;52.160;-0.428;2023-02-26T09:16:30;5.80;99.90
20744;DHT22;56303;52.160;-0.428;2023-02-26T09:18:57;5.80;99.90
20744;DHT22;56303;52.160;-0.428;2023-02-26T09:21:26;5.90;99.90
20744;DHT22;56303;52.160;-0.428;2023-02-26T09:23:52;6.00;99.90
20744;DHT22;56303;52.160;-0.428;2023-02-26T09:26:19;6.00;99.90
20744;DHT22;56303;52.160;-0.428;2023-02-26T09:28:46;6.20;99.90
20744;DHT22;56303;52.160;-0.428;2023-02-26T09:31:13;6.40;99.90
20744;DHT22;56303;52.160;-0.428;2023-02-26T09:33:40;6.10;99.90
20744;DHT22;56303;52.160;-0.428;2023-02-26T09:36:07;6.10;99.90
20744;DHT22;56303;52.160;-0.428;2023-02-26T09:38:34;6.30;99.90
20744;DHT22;56303;52.160;-0.428;2023-02-26T09:41:05;6.20;99.90
20744;DHT22;56303;52.160;-0.428;2023-02-26T09:46:40;6.50;99.90
20744;DHT22;56303;52.160;-0.428;2023-02-26T09:51:49;6.60;99.90
20744;DHT22;56303;52.160;-0.428;2023-02-26T09:54:26;6.60;99.90
20744;DHT22;56303;52.160;-0.428;2023-02-26T09:56:56;6.80;99.90
20744;DHT22;56303;52.160;-0.428;2023-02-26T09:59:29;6.90;99.90
20744;DHT22;56303;52.160;-0.428;2023-02-26T10:02:03;6.90;99.90
20744;DHT22;56303;52.160;-0.428;2023-02-26T10:12:30;6.90;99.90
20744;DHT22;56303;52.160;-0.428;2023-02-26T10:15:12;6.80;99.90
20744;DHT22;56303;52.160;-0.428;2023-02-26T10:25:57;7.40;99.90
20744;DHT22;56303;52.160;-0.428;2023-02-26T10:34:09;7.30;99.90
20744;DHT22;56303;52.160;-0.428;2023-02-26T10:37:12;7.80;99.90
20744;DHT22;56303;52.160;-0.428;2023-02-26T10:42:32;7.80;99.90
20744;DHT22;56303;52.160;-0.428;2023-02-26T10:45:21;7.60;99.90
20744;DHT22;56303;52.160;-0.428;2023-02-26T10:50:32;7.90;99.90
20744;DHT22;56303;52.160;-0.428;2023-02-26T10:52:59;8.00;99.90
20744;DHT22;56303;52.160;-0.428;2023-02-26T10:55:43;8.30;99.90
20744;DHT22;56303;52.160;-0.428;2023-02-26T10:58:16;8.50;99.90
20744;DHT22;56303;52.160;-0.428;2023-02-26T11:00:49;8.90;99.90
20744;DHT22;56303;52.160;-0.428;2023-02-26T11:03:31;9.00;99.90
20744;DHT22;56303;52.160;-0.428;2023-02-26T11:05:58;8.70;99.90
20744;DHT22;56303;52.160;-0.428;2023-02-26T11:08:26;9.80;99.90
20744;DHT22;56303;52.160;-0.428;2023-02-26T11:10:56;9.50;99.90
20744;DHT22;56303;52.160;-0.428;2023-02-26T11:13:25;9.50;99.90
20744;DHT22;56303;52.160;-0.428;2023-02-26T11:15:55;9.40;99.90
20744;DHT22;56303;52.160;-0.428;2023-02-26T11:18:26;9.60;99.90
20744;DHT22;56303;52.160;-0.428;2023-02-26T11:20:57;9.50;99.90
20744;DHT22;56303;52.160;-0.428;2023-02-26T11:23:26;9.10;99.90
20744;DHT22;56303;52.160;-0.428;2023-02-26T11:26:00;9.30;99.90
20744;DHT22;56303;52.160;-0.428;2023-02-26T11:28:34;9.40;99.90
20744;DHT22;56303;52.160;-0.428;2023-02-26T11:31:07;9.40;99.90
20744;DHT22;56303;52.160;-0.428;2023-02-26T11:33:38;9.40;99.90
20744;DHT22;56303;52.160;-0.428;2023-02-26T11:36:14;9.40;99.90
20744;DHT22;56303;52.160;-0.428;2023-02-26T11:38:44;9.70;99.90
20744;DHT22;56303;52.160;-0.428;2023-02-26T11:41:12;10.00;99.90
20744;DHT22;56303;52.160;-0.428;2023-02-26T11:43:45;9.80;99.90
20744;DHT22;56303;52.160;-0.428;2023-02-26T11:46:14;9.70;99.90
20744;DHT22;56303;52.160;-0.428;2023-02-26T11:48:47;9.50;99.90
20744;DHT22;56303;52.160;-0.428;2023-02-26T11:51:18;9.40;99.90
20744;DHT22;56303;52.160;-0.428;2023-02-26T11:53:54;9.40;99.90
20744;DHT22;56303;52.160;-0.428;2023-02-26T11:57:00;9.50;99.90
20744;DHT22;56303;52.160;-0.428;2023-02-26T11:59:30;9.60;99.90
20744;DHT22;56303;52.160;-0.428;2023-02-26T12:02:09;9.50;99.90
20744;DHT22;56303;52.160;-0.428;2023-02-26T12:04:41;9.40;99.90
20744;DHT22;56303;52.160;-0.428;2023-02-26T12:07:13;9.20;99.90
20744;DHT22;56303;52.160;-0.428;2023-02-26T12:09:41;9.30;99.90
20744;DHT22;56303;52.160;-0.428;2023-02-26T12:12:20;8.90;99.90
20744;DHT22;56303;52.160;-0.428;2023-02-26T13:02:56;11.10;99.90
20744;DHT22;56303;52.160;-0.428;2023-02-26T13:17:37;12.10;99.90
20744;DHT22;56303;52.160;-0.428;2023-02-26T13:20:25;12.10;99.90
20744;DHT22;56303;52.160;-0.428;2023-02-26T13:23:03;10.20;99.90
20744;DHT22;56303;52.160;-0.428;2023-02-26T13:25:56;10.30;99.90
20744;DHT22;56303;52.160;-0.428;2023-02-26T13:28:40;10.10;99.90
20744;DHT22;56303;52.160;-0.428;2023-02-26T13:31:24;10.00;99.90
20744;DHT22;56303;52.160;-0.428;2023-02-26T13:33:54;9.70;99.90
20744;DHT22;56303;52.160;-0.428;2023-02-26T13:36:24;9.60;99.90
20744;DHT22;56303;52.160;-0.428;2023-02-26T13:42:32;9.40;99.90
20744;DHT22;56303;52.160;-0.428;2023-02-26T13:47:51;8.80;99.90
20744;DHT22;56303;52.160;-0.428;2023-02-26T13:56:16;9.30;99.90
20744;DHT22;56303;52.160;-0.428;2023-02-26T13:59:01;9.10;99.90
20744;DHT22;56303;52.160;-0.428;2023-02-26T14:19:40;14.00;97.10
20744;DHT22;56303;52.160;-0.428;2023-02-26T14:22:18;12.00;98.00
20744;DHT22;56303;52.160;-0.428;2023-02-26T14:25:16;10.30;98.20
20744;DHT22;56303;52.160;-0.428;2023-02-26T14:27:45;9.80;99.10
20744;DHT22;56303;52.160;-0.428;2023-02-26T14:30:28;9.70;98.90
20744;DHT22;56303;52.160;-0.428;2023-02-26T14:40:45;11.90;96.00
20744;DHT22;56303;52.160;-0.428;2023-02-26T14:43:31;12.60;95.70
20744;DHT22;56303;52.160;-0.428;2023-02-26T14:46:01;12.60;96.20
20744;DHT22;56303;52.160;-0.428;2023-02-26T14:48:30;12.50;97.00
20744;DHT22;56303;52.160;-0.428;2023-02-26T14:57:04;12.90;96.90
20744;DHT22;56303;52.160;-0.428;2023-02-26T15:24:31;12.60;97.00
20744;DHT22;56303;52.160;-0.428;2023-02-26T15:27:01;12.70;96.90
20744;DHT22;56303;52.160;-0.428;2023-02-26T15:29:31;12.30;96.20
20744;DHT22;56303;52.160;-0.428;2023-02-26T15:32:13;10.70;98.60
20744;DHT22;56303;52.160;-0.428;2023-02-26T15:34:48;11.40;98.20
20744;DHT22;56303;52.160;-0.428;2023-02-26T15:37:23;11.50;98.80
20744;DHT22;56303;52.160;-0.428;2023-02-26T15:39:52;11.90;98.00
20744;DHT22;56303;52.160;-0.428;2023-02-26T15:42:28;12.20;97.60
20744;DHT22;56303;52.160;-0.428;2023-02-26T15:44:59;12.80;97.10
20744;DHT22;56303;52.160;-0.428;2023-02-26T15:47:29;13.10;96.50
20744;DHT22;56303;52.160;-0.428;2023-02-26T15:49:56;12.70;96.80
20744;DHT22;56303;52.160;-0.428;2023-02-26T15:52:25;12.80;96.80
20744;DHT22;56303;52.160;-0.428;2023-02-26T15:55:00;12.70;96.80
20744;DHT22;56303;52.160;-0.428;2023-02-26T15:57:29;12.20;96.00
20744;DHT22;56303;52.160;-0.428;2023-02-26T16:00:12;11.60;96.70
20744;DHT22;56303;52.160;-0.428;2023-02-26T16:02:43;10.50;97.80
20744;DHT22;56303;52.160;-0.428;2023-02-26T16:05:12;9.60;99.70
20744;DHT22;56303;52.160;-0.428;2023-02-26T16:07:42;9.00;99.90
20744;DHT22;56303;52.160;-0.428;2023-02-26T16:10:25;8.70;99.90
20744;DHT22;56303;52.160;-0.428;2023-02-26T16:12:54;8.90;99.90
20744;DHT22;56303;52.160;-0.428;2023-02-26T16:15:32;9.60;99.90
20744;DHT22;56303;52.160;-0.428;2023-02-26T16:18:03;9.60;99.90
20744;DHT22;56303;52.160;-0.428;2023-02-26T16:20:39;9.50;99.90
20744;DHT22;56303;52.160;-0.428;2023-02-26T16:23:14;9.50;99.90
20744;DHT22;56303;52.160;-0.428;2023-02-26T16:25:54;9.40;99.90
20744;DHT22;56303;52.160;-0.428;2023-02-26T16:28:32;9.80;99.90
20744;DHT22;56303;52.160;-0.428;2023-02-26T16:31:03;9.60;99.90
20744;DHT22;56303;52.160;-0.428;2023-02-26T16:33:32;9.60;99.90
20744;DHT22;56303;52.160;-0.428;2023-02-26T16:36:12;9.20;99.90
20744;DHT22;56303;52.160;-0.428;2023-02-26T16:38:58;8.90;99.90
20744;DHT22;56303;52.160;-0.428;2023-02-26T16:41:28;8.40;99.90
20744;DHT22;56303;52.160;-0.428;2023-02-26T16:43:57;8.60;99.90
20744;DHT22;56303;52.160;-0.428;2023-02-26T16:49:08;8.40;99.90
20744;DHT22;56303;52.160;-0.428;2023-02-26T16:51:38;8.50;99.90
20744;DHT22;56303;52.160;-0.428;2023-02-26T16:54:19;8.40;99.90
20744;DHT22;56303;52.160;-0.428;2023-02-26T16:56:58;8.20;99.90
20744;DHT22;56303;52.160;-0.428;2023-02-26T16:59:29;8.00;99.90
20744;DHT22;56303;52.160;-0.428;2023-02-26T17:02:00;8.10;99.90
20744;DHT22;56303;52.160;-0.428;2023-02-26T17:04:33;8.30;99.90
20744;DHT22;56303;52.160;-0.428;2023-02-26T17:07:08;8.00;99.90
20744;DHT22;56303;52.160;-0.428;2023-02-26T17:09:48;7.80;99.90
20744;DHT22;56303;52.160;-0.428;2023-02-26T17:12:20;7.80;99.90
20744;DHT22;56303;52.160;-0.428;2023-02-26T17:17:50;7.50;99.90
20744;DHT22;56303;52.160;-0.428;2023-02-26T17:20:24;7.20;99.90
20744;DHT22;56303;52.160;-0.428;2023-02-26T17:22:51;7.00;99.90
20744;DHT22;56303;52.160;-0.428;2023-02-26T17:25:19;6.80;99.90
20744;DHT22;56303;52.160;-0.428;2023-02-26T17:27:47;6.50;99.90
20744;DHT22;56303;52.160;-0.428;2023-02-26T17:30:18;6.50;99.90
20744;DHT22;56303;52.160;-0.428;2023-02-26T17:32:46;6.40;99.90
20744;DHT22;56303;52.160;-0.428;2023-02-26T17:35:15;6.30;99.90
20744;DHT22;56303;52.160;-0.428;2023-02-26T17:37:43;6.30;99.90
20744;DHT22;56303;52.160;-0.428;2023-02-26T17:40:28;6.20;99.90
20744;DHT22;56303;52.160;-0.428;2023-02-26T17:42:56;6.20;99.90
20744;DHT22;56303;52.160;-0.428;2023-02-26T17:45:25;6.00;99.90
20744;DHT22;56303;52.160;-0.428;2023-02-26T17:47:52;6.00;99.90
20744;DHT22;56303;52.160;-0.428;2023-02-26T17:53:03;5.70;99.90
20744;DHT22;56303;52.160;-0.428;2023-02-26T17:55:30;5.80;99.90
20744;DHT22;56303;52.160;-0.428;2023-02-26T17:57:58;5.70;99.90
20744;DHT22;56303;52.160;-0.428;2023-02-26T18:00:26;5.70;99.90
20744;DHT22;56303;52.160;-0.428;2023-02-26T18:02:53;5.70;99.90
20744;DHT22;56303;52.160;-0.428;2023-02-26T18:05:20;5.70;99.90
20744;DHT22;56303;52.160;-0.428;2023-02-26T18:07:47;5.70;99.90
20744;DHT22;56303;52.160;-0.428;2023-02-26T18:10:20;5.70;99.90
20744;DHT22;56303;52.160;-0.428;2023-02-26T18:12:50;5.30;99.90
20744;DHT22;56303;52.160;-0.428;2023-02-26T18:15:17;5.30;99.90
20744;DHT22;56303;52.160;-0.428;2023-02-26T18:17:44;5.20;99.90
20744;DHT22;56303;52.160;-0.428;2023-02-26T18:20:21;5.40;99.90
20744;DHT22;56303;52.160;-0.428;2023-02-26T18:22:49;5.20;99.90
20744;DHT22;56303;52.160;-0.428;2023-02-26T18:25:16;5.10;99.90
20744;DHT22;56303;52.160;-0.428;2023-02-26T18:27:44;5.00;99.90
20744;DHT22;56303;52.160;-0.428;2023-02-26T18:30:22;5.10;99.90
20744;DHT22;56303;52.160;-0.428;2023-02-26T18:32:49;5.10;99.90
20744;DHT22;56303;52.160;-0.428;2023-02-26T18:35:17;5.10;99.90
20744;DHT22;56303;52.160;-0.428;2023-02-26T18:37:44;5.30;99.90
20744;DHT22;56303;52.160;-0.428;2023-02-26T18:40:16;5.30;99.90
20744;DHT22;56303;52.160;-0.428;2023-02-26T18:42:44;5.20;99.90
20744;DHT22;56303;52.160;-0.428;2023-02-26T18:45:12;5.20;99.90
20744;DHT22;56303;52.160;-0.428;2023-02-26T18:47:39;5.10;99.90
20744;DHT22;56303;52.160;-0.428;2023-02-26T18:50:07;5.10;99.90
20744;DHT22;56303;52.160;-0.428;2023-02-26T18:52:40;5.00;99.90
20744;DHT22;56303;52.160;-0.428;2023-02-26T18:55:08;4.80;99.90
20744;DHT22;56303;52.160;-0.428;2023-02-26T18:57:35;4.90;99.90
20744;DHT22;56303;52.160;-0.428;2023-02-26T19:00:02;5.00;99.90
20744;DHT22;56303;52.160;-0.428;2023-02-26T19:02:29;4.80;99.90
20744;DHT22;56303;52.160;-0.428;2023-02-26T19:04:56;5.10;99.90
20744;DHT22;56303;52.160;-0.428;2023-02-26T19:07:23;4.70;99.90
20744;DHT22;56303;52.160;-0.428;2023-02-26T19:09:50;4.90;99.90
20744;DHT22;56303;52.160;-0.428;2023-02-26T19:12:17;4.70;99.90
20744;DHT22;56303;52.160;-0.428;2023-02-26T19:14:46;4.80;99.90
20744;DHT22;56303;52.160;-0.428;2023-02-26T19:17:13;4.70;99.90
20744;DHT22;56303;52.160;-0.428;2023-02-26T19:19:40;4.70;99.90
20744;DHT22;56303;52.160;-0.428;2023-02-26T19:22:09;4.80;99.90
20744;DHT22;56303;52.160;-0.428;2023-02-26T19:24:36;4.70;99.90